sensor_id;sensor_type;location;lat;lon;timestamp;P1;durP1;ratioP1;P2;durP2;ratioP2
7460;SDS011;6757;52.258;12.840;2023-04-02T00:08:27;1.98;;;1.38;;
7460;SDS011;6757;52.258;12.840;2023-04-02T00:11:05;5.00;;;2.15;;
7460;SDS011;6757;52.258;12.840;2023-04-02T00:13:34;3.13;;;2.25;;
7460;SDS011;6757;52.258;12.840;2023-04-02T00:18:39;1.50;;;1.33;;
7460;SDS011;6757;52.258;12.840;2023-04-02T00:21:12;7.43;;;2.90;;
7460;SDS011;6757;52.258;12.840;2023-04-02T00:23:45;11.73;;;2.95;;
7460;SDS011;6757;52.258;12.840;2023-04-02T00:26:22;5.80;;;2.83;;
7460;SDS011;6757;52.258;12.840;2023-04-02T00:28:55;7.18;;;3.40;;
7460;SDS011;6757;52.258;12.840;2023-04-02T00:31:23;5.07;;;2.65;;
7460;SDS011;6757;52.258;12.840;2023-04-02T00:33:51;6.55;;;2.72;;
7460;SDS011;6757;52.258;12.840;2023-04-02T00:36:18;5.72;;;2.72;;
7460;SDS011;6757;52.258;12.840;2023-04-02T00:38:47;4.68;;;1.83;;
7460;SDS011;6757;52.258;12.840;2023-04-02T00:41:15;2.38;;;1.83;;
7460;SDS011;6757;52.258;12.840;2023-04-02T00:43:47;4.68;;;2.28;;
7460;SDS011;6757;52.258;12.840;2023-04-02T00:46:16;2.65;;;1.83;;
7460;SDS011;6757;52.258;12.840;2023-04-02T00:48:49;4.55;;;2.13;;
7460;SDS011;6757;52.258;12.840;2023-04-02T00:51:24;2.85;;;2.03;;
7460;SDS011;6757;52.258;12.840;2023-04-02T00:56:24;4.95;;;2.50;;
7460;SDS011;6757;52.258;12.840;2023-04-02T00:58:56;9.25;;;2.70;;
7460;SDS011;6757;52.258;12.840;2023-04-02T01:01:24;1.88;;;1.75;;
7460;SDS011;6757;52.258;12.840;2023-04-02T01:04:02;4.15;;;2.53;;
7460;SDS011;6757;52.258;12.840;2023-04-02T01:06:30;6.10;;;3.10;;
7460;SDS011;6757;52.258;12.840;2023-04-02T01:12:02;3.05;;;2.13;;
7460;SDS011;6757;52.258;12.840;2023-04-02T01:14:48;2.25;;;1.40;;
7460;SDS011;6757;52.258;12.840;2023-04-02T01:17:34;11.65;;;2.90;;
7460;SDS011;6757;52.258;12.840;2023-04-02T01:20:26;4.65;;;2.90;;
7460;SDS011;6757;52.258;12.840;2023-04-02T01:23:37;2.60;;;1.85;;
7460;SDS011;6757;52.258;12.840;2023-04-02T01:26:20;3.88;;;2.13;;
7460;SDS011;6757;52.258;12.840;2023-04-02T01:29:02;4.45;;;2.58;;
7460;SDS011;6757;52.258;12.840;2023-04-02T01:31:34;4.38;;;2.17;;
7460;SDS011;6757;52.258;12.840;2023-04-02T01:34:02;5.13;;;2.78;;
7460;SDS011;6757;52.258;12.840;2023-04-02T01:36:35;4.45;;;1.85;;
7460;SDS011;6757;52.258;12.840;2023-04-02T01:39:09;4.05;;;2.38;;
7460;SDS011;6757;52.258;12.840;2023-04-02T01:41:51;5.00;;;1.88;;
7460;SDS011;6757;52.258;12.840;2023-04-02T01:44:30;4.70;;;2.00;;
7460;SDS011;6757;52.258;12.840;2023-04-02T01:47:04;2.80;;;1.50;;
7460;SDS011;6757;52.258;12.840;2023-04-02T01:49:38;3.25;;;1.80;;
7460;SDS011;6757;52.258;12.840;2023-04-02T01:52:06;4.20;;;2.28;;
7460;SDS011;6757;52.258;12.840;2023-04-02T01:54:34;4.13;;;2.97;;
7460;SDS011;6757;52.258;12.840;2023-04-02T01:57:03;2.70;;;1.92;;
7460;SDS011;6757;52.258;12.840;2023-04-02T01:59:31;3.85;;;2.55;;
7460;SDS011;6757;52.258;12.840;2023-04-02T02:02:00;6.65;;;2.65;;
7460;SDS011;6757;52.258;12.840;2023-04-02T02:04:29;3.03;;;2.33;;
7460;SDS011;6757;52.258;12.840;2023-04-02T02:06:57;4.90;;;3.13;;
7460;SDS011;6757;52.258;12.840;2023-04-02T02:09:26;5.72;;;1.92;;
7460;SDS011;6757;52.258;12.840;2023-04-02T02:11:56;2.20;;;1.90;;
7460;SDS011;6757;52.258;12.840;2023-04-02T02:14:23;5.50;;;2.30;;
7460;SDS011;6757;52.258;12.840;2023-04-02T02:16:55;4.28;;;2.40;;
7460;SDS011;6757;52.258;12.840;2023-04-02T02:19:26;13.25;;;2.08;;
7460;SDS011;6757;52.258;12.840;2023-04-02T02:22:01;3.92;;;1.88;;
7460;SDS011;6757;52.258;12.840;2023-04-02T02:24:35;7.68;;;2.25;;
7460;SDS011;6757;52.258;12.840;2023-04-02T02:27:05;5.97;;;2.70;;
7460;SDS011;6757;52.258;12.840;2023-04-02T02:30:22;2.13;;;1.85;;
7460;SDS011;6757;52.258;12.840;2023-04-02T02:32:56;2.22;;;1.83;;
7460;SDS011;6757;52.258;12.840;2023-04-02T02:35:31;7.50;;;3.20;;
7460;SDS011;6757;52.258;12.840;2023-04-02T02:38:09;4.50;;;2.80;;
7460;SDS011;6757;52.258;12.840;2023-04-02T02:40:56;2.78;;;2.03;;
7460;SDS011;6757;52.258;12.840;2023-04-02T02:43:28;2.58;;;1.40;;
7460;SDS011;6757;52.258;12.840;2023-04-02T02:45:57;1.67;;;1.40;;
7460;SDS011;6757;52.258;12.840;2023-04-02T02:48:29;2.97;;;1.63;;
7460;SDS011;6757;52.258;12.840;2023-04-02T02:51:02;4.90;;;2.08;;
7460;SDS011;6757;52.258;12.840;2023-04-02T02:53:35;5.88;;;2.63;;
7460;SDS011;6757;52.258;12.840;2023-04-02T02:56:11;3.20;;;2.70;;
7460;SDS011;6757;52.258;12.840;2023-04-02T02:58:39;3.17;;;2.15;;
7460;SDS011;6757;52.258;12.840;2023-04-02T03:01:06;5.38;;;2.00;;
7460;SDS011;6757;52.258;12.840;2023-04-02T03:03:34;5.38;;;2.33;;
7460;SDS011;6757;52.258;12.840;2023-04-02T03:06:03;3.90;;;2.33;;
7460;SDS011;6757;52.258;12.840;2023-04-02T03:08:33;1.80;;;1.55;;
7460;SDS011;6757;52.258;12.840;2023-04-02T03:11:06;3.75;;;2.50;;
7460;SDS011;6757;52.258;12.840;2023-04-02T03:13:37;4.40;;;2.38;;
7460;SDS011;6757;52.258;12.840;2023-04-02T03:16:11;2.33;;;1.30;;
7460;SDS011;6757;52.258;12.840;2023-04-02T03:18:46;3.95;;;2.22;;
7460;SDS011;6757;52.258;12.840;2023-04-02T03:21:24;4.30;;;2.17;;
7460;SDS011;6757;52.258;12.840;2023-04-02T03:23:56;3.05;;;1.95;;
7460;SDS011;6757;52.258;12.840;2023-04-02T03:26:28;5.10;;;2.50;;
7460;SDS011;6757;52.258;12.840;2023-04-02T03:29:00;2.83;;;1.92;;
7460;SDS011;6757;52.258;12.840;2023-04-02T03:31:34;4.93;;;2.10;;
7460;SDS011;6757;52.258;12.840;2023-04-02T03:34:06;1.77;;;1.38;;
7460;SDS011;6757;52.258;12.840;2023-04-02T03:36:39;3.15;;;1.80;;
7460;SDS011;6757;52.258;12.840;2023-04-02T03:39:15;2.60;;;1.67;;
7460;SDS011;6757;52.258;12.840;2023-04-02T03:41:49;3.03;;;1.83;;
7460;SDS011;6757;52.258;12.840;2023-04-02T03:44:22;2.92;;;1.70;;
7460;SDS011;6757;52.258;12.840;2023-04-02T03:46:53;3.83;;;2.65;;
7460;SDS011;6757;52.258;12.840;2023-04-02T03:49:27;1.58;;;1.20;;
7460;SDS011;6757;52.258;12.840;2023-04-02T03:52:00;3.67;;;2.05;;
7460;SDS011;6757;52.258;12.840;2023-04-02T03:54:30;3.47;;;1.55;;
7460;SDS011;6757;52.258;12.840;2023-04-02T03:56:58;2.63;;;1.90;;
7460;SDS011;6757;52.258;12.840;2023-04-02T03:59:28;2.92;;;2.13;;
7460;SDS011;6757;52.258;12.840;2023-04-02T04:02:06;2.90;;;1.65;;
7460;SDS011;6757;52.258;12.840;2023-04-02T04:04:44;2.33;;;1.40;;
7460;SDS011;6757;52.258;12.840;2023-04-02T04:07:14;3.72;;;1.35;;
7460;SDS011;6757;52.258;12.840;2023-04-02T04:09:46;2.40;;;1.95;;
7460;SDS011;6757;52.258;12.840;2023-04-02T04:12:20;1.77;;;1.40;;
7460;SDS011;6757;52.258;12.840;2023-04-02T04:14:53;2.42;;;1.38;;
7460;SDS011;6757;52.258;12.840;2023-04-02T04:17:29;2.28;;;1.30;;
7460;SDS011;6757;52.258;12.840;2023-04-02T04:20:06;3.85;;;1.73;;
7460;SDS011;6757;52.258;12.840;2023-04-02T04:22:45;3.03;;;1.45;;
7460;SDS011;6757;52.258;12.840;2023-04-02T04:25:17;1.85;;;1.35;;
7460;SDS011;6757;52.258;12.840;2023-04-02T04:27:52;3.60;;;1.75;;
7460;SDS011;6757;52.258;12.840;2023-04-02T04:30:37;3.40;;;1.55;;
7460;SDS011;6757;52.258;12.840;2023-04-02T04:33:15;3.65;;;1.77;;
7460;SDS011;6757;52.258;12.840;2023-04-02T04:35:49;1.50;;;1.40;;
7460;SDS011;6757;52.258;12.840;2023-04-02T04:38:24;3.78;;;1.73;;
7460;SDS011;6757;52.258;12.840;2023-04-02T04:40:58;2.90;;;1.67;;
7460;SDS011;6757;52.258;12.840;2023-04-02T04:43:31;1.83;;;1.13;;
7460;SDS011;6757;52.258;12.840;2023-04-02T04:46:08;3.40;;;1.77;;
7460;SDS011;6757;52.258;12.840;2023-04-02T04:48:40;2.10;;;1.55;;
7460;SDS011;6757;52.258;12.840;2023-04-02T04:51:18;1.52;;;1.10;;
7460;SDS011;6757;52.258;12.840;2023-04-02T04:53:49;1.88;;;0.73;;
7460;SDS011;6757;52.258;12.840;2023-04-02T04:56:20;1.20;;;1.10;;
7460;SDS011;6757;52.258;12.840;2023-04-02T04:58:52;2.97;;;1.48;;
7460;SDS011;6757;52.258;12.840;2023-04-02T05:01:25;1.50;;;1.40;;
7460;SDS011;6757;52.258;12.840;2023-04-02T05:03:58;2.20;;;1.25;;
7460;SDS011;6757;52.258;12.840;2023-04-02T05:06:36;1.60;;;1.48;;
7460;SDS011;6757;52.258;12.840;2023-04-02T05:09:10;3.08;;;1.90;;
7460;SDS011;6757;52.258;12.840;2023-04-02T05:11:47;1.80;;;1.30;;
7460;SDS011;6757;52.258;12.840;2023-04-02T05:14:25;0.82;;;0.82;;
7460;SDS011;6757;52.258;12.840;2023-04-02T05:16:59;4.45;;;1.73;;
7460;SDS011;6757;52.258;12.840;2023-04-02T05:19:33;7.40;;;1.55;;
7460;SDS011;6757;52.258;12.840;2023-04-02T05:22:13;4.18;;;1.70;;
7460;SDS011;6757;52.258;12.840;2023-04-02T05:24:52;1.20;;;1.20;;
7460;SDS011;6757;52.258;12.840;2023-04-02T05:27:31;2.30;;;1.27;;
7460;SDS011;6757;52.258;12.840;2023-04-02T05:30:06;2.38;;;1.65;;
7460;SDS011;6757;52.258;12.840;2023-04-02T05:32:44;2.70;;;1.52;;
7460;SDS011;6757;52.258;12.840;2023-04-02T05:35:15;1.75;;;1.65;;
7460;SDS011;6757;52.258;12.840;2023-04-02T05:37:47;2.17;;;1.58;;
7460;SDS011;6757;52.258;12.840;2023-04-02T05:40:18;4.82;;;2.30;;
7460;SDS011;6757;52.258;12.840;2023-04-02T05:42:48;3.15;;;1.88;;
7460;SDS011;6757;52.258;12.840;2023-04-02T05:45:21;1.92;;;1.45;;
7460;SDS011;6757;52.258;12.840;2023-04-02T05:47:54;8.82;;;2.10;;
7460;SDS011;6757;52.258;12.840;2023-04-02T05:50:26;3.30;;;1.85;;
7460;SDS011;6757;52.258;12.840;2023-04-02T05:52:59;2.47;;;1.30;;
7460;SDS011;6757;52.258;12.840;2023-04-02T05:55:37;1.95;;;1.63;;
7460;SDS011;6757;52.258;12.840;2023-04-02T05:58:15;3.85;;;1.50;;
7460;SDS011;6757;52.258;12.840;2023-04-02T06:03:23;0.90;;;0.90;;
7460;SDS011;6757;52.258;12.840;2023-04-02T06:05:57;3.53;;;1.73;;
7460;SDS011;6757;52.258;12.840;2023-04-02T06:08:32;1.85;;;0.98;;
7460;SDS011;6757;52.258;12.840;2023-04-02T06:11:05;1.52;;;1.30;;
7460;SDS011;6757;52.258;12.840;2023-04-02T06:13:36;1.98;;;1.15;;
7460;SDS011;6757;52.258;12.840;2023-04-02T06:16:04;2.80;;;1.58;;
7460;SDS011;6757;52.258;12.840;2023-04-02T06:18:32;2.53;;;1.58;;
7460;SDS011;6757;52.258;12.840;2023-04-02T06:21:01;1.98;;;0.98;;
7460;SDS011;6757;52.258;12.840;2023-04-02T06:23:32;5.15;;;2.90;;
7460;SDS011;6757;52.258;12.840;2023-04-02T06:26:05;3.63;;;2.10;;
7460;SDS011;6757;52.258;12.840;2023-04-02T06:31:07;2.10;;;1.35;;
7460;SDS011;6757;52.258;12.840;2023-04-02T06:33:48;2.92;;;1.80;;
7460;SDS011;6757;52.258;12.840;2023-04-02T06:36:16;1.90;;;1.55;;
7460;SDS011;6757;52.258;12.840;2023-04-02T06:38:45;2.83;;;1.42;;
7460;SDS011;6757;52.258;12.840;2023-04-02T06:41:14;1.90;;;1.60;;
7460;SDS011;6757;52.258;12.840;2023-04-02T06:43:45;6.35;;;2.25;;
7460;SDS011;6757;52.258;12.840;2023-04-02T06:46:17;2.28;;;1.30;;
7460;SDS011;6757;52.258;12.840;2023-04-02T06:48:51;2.55;;;1.42;;
7460;SDS011;6757;52.258;12.840;2023-04-02T06:51:26;3.88;;;2.05;;
7460;SDS011;6757;52.258;12.840;2023-04-02T06:53:56;13.98;;;2.22;;
7460;SDS011;6757;52.258;12.840;2023-04-02T06:56:26;2.13;;;1.30;;
7460;SDS011;6757;52.258;12.840;2023-04-02T06:59:05;2.03;;;1.08;;
7460;SDS011;6757;52.258;12.840;2023-04-02T07:01:34;1.00;;;1.00;;
7460;SDS011;6757;52.258;12.840;2023-04-02T07:04:06;1.02;;;0.63;;
7460;SDS011;6757;52.258;12.840;2023-04-02T07:06:34;1.50;;;1.42;;
7460;SDS011;6757;52.258;12.840;2023-04-02T07:09:02;2.50;;;1.08;;
7460;SDS011;6757;52.258;12.840;2023-04-02T07:11:30;0.70;;;0.68;;
7460;SDS011;6757;52.258;12.840;2023-04-02T07:13:57;2.03;;;0.55;;
7460;SDS011;6757;52.258;12.840;2023-04-02T07:16:25;1.33;;;1.23;;
7460;SDS011;6757;52.258;12.840;2023-04-02T07:18:53;1.63;;;0.98;;
7460;SDS011;6757;52.258;12.840;2023-04-02T07:21:22;6.78;;;2.40;;
7460;SDS011;6757;52.258;12.840;2023-04-02T07:23:50;0.57;;;0.57;;
7460;SDS011;6757;52.258;12.840;2023-04-02T07:26:18;0.88;;;0.88;;
7460;SDS011;6757;52.258;12.840;2023-04-02T07:28:47;0.40;;;0.40;;
7460;SDS011;6757;52.258;12.840;2023-04-02T07:31:15;1.05;;;0.57;;
7460;SDS011;6757;52.258;12.840;2023-04-02T07:33:44;0.65;;;0.60;;
7460;SDS011;6757;52.258;12.840;2023-04-02T07:36:12;6.65;;;1.58;;
7460;SDS011;6757;52.258;12.840;2023-04-02T07:38:41;2.40;;;1.35;;
7460;SDS011;6757;52.258;12.840;2023-04-02T07:41:08;1.33;;;1.13;;
7460;SDS011;6757;52.258;12.840;2023-04-02T07:43:37;4.05;;;2.13;;
7460;SDS011;6757;52.258;12.840;2023-04-02T07:46:05;14.63;;;4.95;;
7460;SDS011;6757;52.258;12.840;2023-04-02T07:48:33;11.73;;;4.47;;
7460;SDS011;6757;52.258;12.840;2023-04-02T07:51:00;8.00;;;4.10;;
7460;SDS011;6757;52.258;12.840;2023-04-02T07:53:28;9.52;;;4.18;;
7460;SDS011;6757;52.258;12.840;2023-04-02T07:55:58;8.98;;;4.65;;
7460;SDS011;6757;52.258;12.840;2023-04-02T07:58:27;8.65;;;3.67;;
7460;SDS011;6757;52.258;12.840;2023-04-02T08:00:56;5.93;;;3.65;;
7460;SDS011;6757;52.258;12.840;2023-04-02T08:03:23;2.58;;;2.08;;
7460;SDS011;6757;52.258;12.840;2023-04-02T08:05:51;5.30;;;2.63;;
7460;SDS011;6757;52.258;12.840;2023-04-02T08:08:20;4.72;;;2.25;;
7460;SDS011;6757;52.258;12.840;2023-04-02T08:10:48;3.50;;;1.85;;
7460;SDS011;6757;52.258;12.840;2023-04-02T08:13:16;2.22;;;1.95;;
7460;SDS011;6757;52.258;12.840;2023-04-02T08:15:44;3.15;;;1.58;;
7460;SDS011;6757;52.258;12.840;2023-04-02T08:18:12;3.10;;;1.83;;
7460;SDS011;6757;52.258;12.840;2023-04-02T08:20:39;2.42;;;1.60;;
7460;SDS011;6757;52.258;12.840;2023-04-02T08:23:11;2.53;;;1.67;;
7460;SDS011;6757;52.258;12.840;2023-04-02T08:25:42;4.00;;;1.15;;
7460;SDS011;6757;52.258;12.840;2023-04-02T08:28:09;1.13;;;1.10;;
7460;SDS011;6757;52.258;12.840;2023-04-02T08:30:36;4.05;;;1.58;;
7460;SDS011;6757;52.258;12.840;2023-04-02T08:33:04;1.05;;;0.98;;
7460;SDS011;6757;52.258;12.840;2023-04-02T08:35:32;0.95;;;0.55;;
7460;SDS011;6757;52.258;12.840;2023-04-02T08:37:59;1.80;;;1.15;;
7460;SDS011;6757;52.258;12.840;2023-04-02T08:40:28;1.83;;;0.95;;
7460;SDS011;6757;52.258;12.840;2023-04-02T08:43:02;2.47;;;1.25;;
7460;SDS011;6757;52.258;12.840;2023-04-02T08:45:46;1.08;;;0.80;;
7460;SDS011;6757;52.258;12.840;2023-04-02T08:48:25;1.20;;;0.93;;
7460;SDS011;6757;52.258;12.840;2023-04-02T08:50:54;1.52;;;1.15;;
7460;SDS011;6757;52.258;12.840;2023-04-02T08:53:23;1.73;;;1.17;;
7460;SDS011;6757;52.258;12.840;2023-04-02T08:55:55;1.05;;;0.88;;
7460;SDS011;6757;52.258;12.840;2023-04-02T08:58:32;0.55;;;0.55;;
7460;SDS011;6757;52.258;12.840;2023-04-02T09:01:08;1.40;;;1.30;;
7460;SDS011;6757;52.258;12.840;2023-04-02T09:03:47;2.70;;;1.30;;
7460;SDS011;6757;52.258;12.840;2023-04-02T09:06:17;3.13;;;1.10;;
7460;SDS011;6757;52.258;12.840;2023-04-02T09:08:45;1.63;;;1.23;;
7460;SDS011;6757;52.258;12.840;2023-04-02T09:11:18;1.02;;;0.98;;
7460;SDS011;6757;52.258;12.840;2023-04-02T09:13:51;2.33;;;1.45;;
7460;SDS011;6757;52.258;12.840;2023-04-02T09:16:23;5.13;;;1.05;;
7460;SDS011;6757;52.258;12.840;2023-04-02T09:19:11;0.60;;;0.55;;
7460;SDS011;6757;52.258;12.840;2023-04-02T09:21:46;1.00;;;1.00;;
7460;SDS011;6757;52.258;12.840;2023-04-02T09:24:33;1.52;;;0.95;;
7460;SDS011;6757;52.258;12.840;2023-04-02T09:27:00;1.73;;;1.35;;
7460;SDS011;6757;52.258;12.840;2023-04-02T09:29:34;0.68;;;0.55;;
7460;SDS011;6757;52.258;12.840;2023-04-02T09:32:20;0.77;;;0.77;;
7460;SDS011;6757;52.258;12.840;2023-04-02T09:35:06;0.77;;;0.77;;
7460;SDS011;6757;52.258;12.840;2023-04-02T09:37:38;0.65;;;0.65;;
7460;SDS011;6757;52.258;12.840;2023-04-02T09:40:14;3.50;;;1.42;;
7460;SDS011;6757;52.258;12.840;2023-04-02T09:42:45;2.38;;;1.05;;
7460;SDS011;6757;52.258;12.840;2023-04-02T09:45:13;2.00;;;1.27;;
7460;SDS011;6757;52.258;12.840;2023-04-02T09:47:45;3.42;;;1.60;;
7460;SDS011;6757;52.258;12.840;2023-04-02T09:50:13;2.97;;;1.52;;
7460;SDS011;6757;52.258;12.840;2023-04-02T09:52:52;2.58;;;1.65;;
7460;SDS011;6757;52.258;12.840;2023-04-02T09:55:21;1.35;;;1.02;;
7460;SDS011;6757;52.258;12.840;2023-04-02T09:58:05;4.25;;;1.73;;
7460;SDS011;6757;52.258;12.840;2023-04-02T10:00:37;3.38;;;1.60;;
7460;SDS011;6757;52.258;12.840;2023-04-02T10:03:10;0.95;;;0.82;;
7460;SDS011;6757;52.258;12.840;2023-04-02T10:05:48;5.18;;;2.17;;
7460;SDS011;6757;52.258;12.840;2023-04-02T10:08:33;1.15;;;1.08;;
7460;SDS011;6757;52.258;12.840;2023-04-02T10:11:00;3.45;;;2.15;;
7460;SDS011;6757;52.258;12.840;2023-04-02T10:13:30;5.57;;;1.90;;
7460;SDS011;6757;52.258;12.840;2023-04-02T10:16:07;2.63;;;1.52;;
7460;SDS011;6757;52.258;12.840;2023-04-02T10:18:40;7.82;;;2.53;;
7460;SDS011;6757;52.258;12.840;2023-04-02T10:21:11;3.80;;;1.77;;
7460;SDS011;6757;52.258;12.840;2023-04-02T10:23:43;4.72;;;2.30;;
7460;SDS011;6757;52.258;12.840;2023-04-02T10:26:23;4.50;;;2.35;;
7460;SDS011;6757;52.258;12.840;2023-04-02T10:29:18;11.52;;;2.88;;
7460;SDS011;6757;52.258;12.840;2023-04-02T10:32:12;2.97;;;1.92;;
7460;SDS011;6757;52.258;12.840;2023-04-02T10:34:45;6.63;;;1.60;;
7460;SDS011;6757;52.258;12.840;2023-04-02T10:37:33;4.32;;;1.33;;
7460;SDS011;6757;52.258;12.840;2023-04-02T10:40:22;2.40;;;1.38;;
7460;SDS011;6757;52.258;12.840;2023-04-02T10:42:57;1.75;;;1.13;;
7460;SDS011;6757;52.258;12.840;2023-04-02T10:45:48;0.95;;;0.88;;
7460;SDS011;6757;52.258;12.840;2023-04-02T10:48:20;2.95;;;1.55;;
7460;SDS011;6757;52.258;12.840;2023-04-02T10:50:54;2.83;;;1.75;;
7460;SDS011;6757;52.258;12.840;2023-04-02T10:53:28;2.28;;;0.73;;
7460;SDS011;6757;52.258;12.840;2023-04-02T10:56:06;0.82;;;0.82;;
7460;SDS011;6757;52.258;12.840;2023-04-02T10:58:37;1.98;;;0.80;;
7460;SDS011;6757;52.258;12.840;2023-04-02T11:01:16;0.70;;;0.70;;
7460;SDS011;6757;52.258;12.840;2023-04-02T11:03:49;0.70;;;0.60;;
7460;SDS011;6757;52.258;12.840;2023-04-02T11:06:23;0.57;;;0.57;;
7460;SDS011;6757;52.258;12.840;2023-04-02T11:08:54;1.70;;;1.00;;
7460;SDS011;6757;52.258;12.840;2023-04-02T11:11:28;0.25;;;0.25;;
7460;SDS011;6757;52.258;12.840;2023-04-02T11:14:02;2.92;;;1.08;;
7460;SDS011;6757;52.258;12.840;2023-04-02T11:16:37;0.98;;;0.60;;
7460;SDS011;6757;52.258;12.840;2023-04-02T11:19:08;0.93;;;0.93;;
7460;SDS011;6757;52.258;12.840;2023-04-02T11:21:52;1.65;;;0.90;;
7460;SDS011;6757;52.258;12.840;2023-04-02T11:24:25;2.00;;;0.82;;
7460;SDS011;6757;52.258;12.840;2023-04-02T11:29:52;0.57;;;0.40;;
7460;SDS011;6757;52.258;12.840;2023-04-02T11:32:34;3.05;;;1.00;;
7460;SDS011;6757;52.258;12.840;2023-04-02T11:38:02;2.25;;;1.65;;
7460;SDS011;6757;52.258;12.840;2023-04-02T11:41:09;1.30;;;0.77;;
7460;SDS011;6757;52.258;12.840;2023-04-02T11:43:49;2.08;;;0.75;;
7460;SDS011;6757;52.258;12.840;2023-04-02T11:46:33;8.00;;;1.05;;
7460;SDS011;6757;52.258;12.840;2023-04-02T11:52:04;1.73;;;0.75;;
7460;SDS011;6757;52.258;12.840;2023-04-02T11:54:45;1.60;;;0.75;;
7460;SDS011;6757;52.258;12.840;2023-04-02T11:57:27;3.45;;;0.80;;
7460;SDS011;6757;52.258;12.840;2023-04-02T12:00:15;1.02;;;0.85;;
7460;SDS011;6757;52.258;12.840;2023-04-02T12:02:55;0.77;;;0.65;;
7460;SDS011;6757;52.258;12.840;2023-04-02T12:05:45;0.32;;;0.28;;
7460;SDS011;6757;52.258;12.840;2023-04-02T12:08:23;1.30;;;0.57;;
7460;SDS011;6757;52.258;12.840;2023-04-02T12:11:03;0.75;;;0.55;;
7460;SDS011;6757;52.258;12.840;2023-04-02T12:13:52;1.77;;;0.98;;
7460;SDS011;6757;52.258;12.840;2023-04-02T12:16:22;2.03;;;0.57;;
7460;SDS011;6757;52.258;12.840;2023-04-02T12:18:55;1.55;;;0.80;;
7460;SDS011;6757;52.258;12.840;2023-04-02T12:21:24;1.02;;;0.88;;
7460;SDS011;6757;52.258;12.840;2023-04-02T12:23:53;1.10;;;0.68;;
7460;SDS011;6757;52.258;12.840;2023-04-02T12:26:25;0.70;;;0.38;;
7460;SDS011;6757;52.258;12.840;2023-04-02T12:31:46;1.08;;;0.85;;
7460;SDS011;6757;52.258;12.840;2023-04-02T12:34:14;0.75;;;0.52;;
7460;SDS011;6757;52.258;12.840;2023-04-02T12:36:52;1.38;;;0.90;;
7460;SDS011;6757;52.258;12.840;2023-04-02T12:39:23;0.73;;;0.73;;
7460;SDS011;6757;52.258;12.840;2023-04-02T12:41:51;1.30;;;0.82;;
7460;SDS011;6757;52.258;12.840;2023-04-02T12:44:23;0.40;;;0.40;;
7460;SDS011;6757;52.258;12.840;2023-04-02T12:46:52;1.85;;;0.75;;
7460;SDS011;6757;52.258;12.840;2023-04-02T12:49:29;3.70;;;1.25;;
7460;SDS011;6757;52.258;12.840;2023-04-02T12:52:01;0.68;;;0.68;;
7460;SDS011;6757;52.258;12.840;2023-04-02T12:54:30;1.98;;;0.88;;
7460;SDS011;6757;52.258;12.840;2023-04-02T12:57:27;1.48;;;1.13;;
7460;SDS011;6757;52.258;12.840;2023-04-02T13:00:01;3.85;;;0.90;;
7460;SDS011;6757;52.258;12.840;2023-04-02T13:02:58;1.35;;;0.60;;
7460;SDS011;6757;52.258;12.840;2023-04-02T13:05:34;1.83;;;0.73;;
7460;SDS011;6757;52.258;12.840;2023-04-02T13:08:05;0.38;;;0.38;;
7460;SDS011;6757;52.258;12.840;2023-04-02T13:10:41;0.57;;;0.57;;
7460;SDS011;6757;52.258;12.840;2023-04-02T13:13:11;2.08;;;0.68;;
7460;SDS011;6757;52.258;12.840;2023-04-02T13:15:43;2.63;;;0.88;;
7460;SDS011;6757;52.258;12.840;2023-04-02T13:18:17;0.22;;;0.22;;
7460;SDS011;6757;52.258;12.840;2023-04-02T13:20:55;1.73;;;1.00;;
7460;SDS011;6757;52.258;12.840;2023-04-02T13:23:28;2.03;;;0.70;;
7460;SDS011;6757;52.258;12.840;2023-04-02T13:26:00;0.98;;;0.57;;
7460;SDS011;6757;52.258;12.840;2023-04-02T13:28:36;0.75;;;0.57;;
7460;SDS011;6757;52.258;12.840;2023-04-02T13:31:05;5.90;;;1.67;;
7460;SDS011;6757;52.258;12.840;2023-04-02T13:33:35;1.65;;;1.10;;
7460;SDS011;6757;52.258;12.840;2023-04-02T13:36:02;1.10;;;0.57;;
7460;SDS011;6757;52.258;12.840;2023-04-02T13:38:29;2.28;;;0.80;;
7460;SDS011;6757;52.258;12.840;2023-04-02T13:40:56;2.25;;;1.10;;
7460;SDS011;6757;52.258;12.840;2023-04-02T13:43:23;0.95;;;0.70;;
7460;SDS011;6757;52.258;12.840;2023-04-02T13:45:50;2.05;;;0.85;;
7460;SDS011;6757;52.258;12.840;2023-04-02T13:48:21;1.85;;;0.93;;
7460;SDS011;6757;52.258;12.840;2023-04-02T13:50:50;3.95;;;0.85;;
7460;SDS011;6757;52.258;12.840;2023-04-02T13:53:19;2.72;;;0.85;;
7460;SDS011;6757;52.258;12.840;2023-04-02T13:55:49;1.13;;;0.88;;
7460;SDS011;6757;52.258;12.840;2023-04-02T13:58:17;1.63;;;0.90;;
7460;SDS011;6757;52.258;12.840;2023-04-02T14:00:44;1.05;;;0.80;;
7460;SDS011;6757;52.258;12.840;2023-04-02T14:03:13;2.95;;;0.98;;
7460;SDS011;6757;52.258;12.840;2023-04-02T14:05:50;0.82;;;0.52;;
7460;SDS011;6757;52.258;12.840;2023-04-02T14:08:30;2.05;;;1.05;;
7460;SDS011;6757;52.258;12.840;2023-04-02T14:11:16;3.60;;;1.10;;
7460;SDS011;6757;52.258;12.840;2023-04-02T14:14:07;2.88;;;0.63;;
7460;SDS011;6757;52.258;12.840;2023-04-02T14:17:03;3.38;;;0.98;;
7460;SDS011;6757;52.258;12.840;2023-04-02T14:19:47;1.70;;;0.77;;
7460;SDS011;6757;52.258;12.840;2023-04-02T14:22:30;0.82;;;0.50;;
7460;SDS011;6757;52.258;12.840;2023-04-02T14:25:13;1.33;;;0.63;;
7460;SDS011;6757;52.258;12.840;2023-04-02T14:27:50;0.25;;;0.25;;
7460;SDS011;6757;52.258;12.840;2023-04-02T14:30:25;0.38;;;0.38;;
7460;SDS011;6757;52.258;12.840;2023-04-02T14:33:01;5.03;;;0.85;;
7460;SDS011;6757;52.258;12.840;2023-04-02T14:35:40;2.22;;;1.13;;
7460;SDS011;6757;52.258;12.840;2023-04-02T14:38:14;5.72;;;1.10;;
7460;SDS011;6757;52.258;12.840;2023-04-02T14:40:46;3.17;;;1.20;;
7460;SDS011;6757;52.258;12.840;2023-04-02T14:43:16;1.52;;;0.60;;
7460;SDS011;6757;52.258;12.840;2023-04-02T14:45:52;1.10;;;0.50;;
7460;SDS011;6757;52.258;12.840;2023-04-02T14:48:29;1.35;;;1.02;;
7460;SDS011;6757;52.258;12.840;2023-04-02T14:51:11;1.55;;;0.68;;
7460;SDS011;6757;52.258;12.840;2023-04-02T14:53:46;2.25;;;0.90;;
7460;SDS011;6757;52.258;12.840;2023-04-02T14:56:25;1.42;;;0.45;;
7460;SDS011;6757;52.258;12.840;2023-04-02T14:58:54;1.75;;;0.50;;
7460;SDS011;6757;52.258;12.840;2023-04-02T15:01:39;0.57;;;0.55;;
7460;SDS011;6757;52.258;12.840;2023-04-02T15:06:42;3.83;;;0.75;;
7460;SDS011;6757;52.258;12.840;2023-04-02T15:09:13;1.10;;;0.85;;
7460;SDS011;6757;52.258;12.840;2023-04-02T15:11:46;1.13;;;1.02;;
7460;SDS011;6757;52.258;12.840;2023-04-02T15:14:17;1.17;;;1.08;;
7460;SDS011;6757;52.258;12.840;2023-04-02T15:16:48;1.75;;;0.50;;
7460;SDS011;6757;52.258;12.840;2023-04-02T15:19:16;1.80;;;0.98;;
7460;SDS011;6757;52.258;12.840;2023-04-02T15:21:48;1.10;;;0.70;;
7460;SDS011;6757;52.258;12.840;2023-04-02T15:24:36;1.15;;;1.02;;
7460;SDS011;6757;52.258;12.840;2023-04-02T15:27:16;0.85;;;0.65;;
7460;SDS011;6757;52.258;12.840;2023-04-02T15:29:54;1.98;;;0.73;;
7460;SDS011;6757;52.258;12.840;2023-04-02T15:32:28;1.33;;;1.00;;
7460;SDS011;6757;52.258;12.840;2023-04-02T15:35:04;5.97;;;1.13;;
7460;SDS011;6757;52.258;12.840;2023-04-02T15:37:46;1.55;;;0.85;;
7460;SDS011;6757;52.258;12.840;2023-04-02T15:43:16;0.20;;;0.20;;
7460;SDS011;6757;52.258;12.840;2023-04-02T15:45:50;0.85;;;0.25;;
7460;SDS011;6757;52.258;12.840;2023-04-02T15:48:32;2.22;;;0.85;;
7460;SDS011;6757;52.258;12.840;2023-04-02T15:51:34;1.02;;;0.93;;
7460;SDS011;6757;52.258;12.840;2023-04-02T15:54:30;0.95;;;0.70;;
7460;SDS011;6757;52.258;12.840;2023-04-02T15:57:15;3.13;;;1.20;;
7460;SDS011;6757;52.258;12.840;2023-04-02T15:59:57;0.40;;;0.40;;
7460;SDS011;6757;52.258;12.840;2023-04-02T16:02:46;2.10;;;0.85;;
7460;SDS011;6757;52.258;12.840;2023-04-02T16:05:42;1.88;;;0.57;;
7460;SDS011;6757;52.258;12.840;2023-04-02T16:08:28;1.02;;;0.60;;
7460;SDS011;6757;52.258;12.840;2023-04-02T16:11:10;0.60;;;0.60;;
7460;SDS011;6757;52.258;12.840;2023-04-02T16:13:42;1.25;;;0.82;;
7460;SDS011;6757;52.258;12.840;2023-04-02T16:16:10;2.67;;;0.60;;
7460;SDS011;6757;52.258;12.840;2023-04-02T16:18:45;2.38;;;1.65;;
7460;SDS011;6757;52.258;12.840;2023-04-02T16:21:19;1.67;;;0.95;;